Arenzville, Illinois
Current Conditions -  °F | °C
As of 6:15 PM on Wednesday 28 Jan 2015 (Local Time) from KIJX Reporting Station
Clear Clear  
Wind Chill: 35°   Ceiling: Unl
Heat Index: 43°   Visibility: 10mi
Dew Point: 32°   Wind: 17mph
Humidity: 66%   Direction: 140°SE
Pressure: 29.88"   Gusts: 24mph
Location:  39.88°N, 90.37°W
Report Text: KIJX 290015Z AUTO 14015G21KT 10SM CLR 06/00 A2988 RMK AO2 T00610002
Loading
Personal Weather Stations






























Interactive Weather Map New forecast layout! Learn more

10-Day Weather Forecast

Advertisements
Track Severe Weather on mobile